sensor_id;sensor_type;location;lat;lon;timestamp;temperature;humidity
67005;HTU21D;53920;51.094;5.902;2022-08-21T00:00:08;16.86;72.69
67005;HTU21D;53920;51.094;5.902;2022-08-21T00:02:46;16.84;72.97
67005;HTU21D;53920;51.094;5.902;2022-08-21T00:05:12;16.84;73.24
67005;HTU21D;53920;51.094;5.902;2022-08-21T00:07:38;16.81;73.35
67005;HTU21D;53920;51.094;5.902;2022-08-21T00:10:05;16.82;73.43
67005;HTU21D;53920;51.094;5.902;2022-08-21T00:12:32;16.78;73.43
67005;HTU21D;53920;51.094;5.902;2022-08-21T00:14:58;16.78;73.29
67005;HTU21D;53920;51.094;5.902;2022-08-21T00:17:24;16.77;73.27
67005;HTU21D;53920;51.094;5.902;2022-08-21T00:19:50;16.79;73.15
67005;HTU21D;53920;51.094;5.902;2022-08-21T00:22:16;16.82;72.88
67005;HTU21D;53920;51.094;5.902;2022-08-21T00:24:43;16.81;72.84
67005;HTU21D;53920;51.094;5.902;2022-08-21T00:27:09;16.80;72.70
67005;HTU21D;53920;51.094;5.902;2022-08-21T00:29:34;16.84;72.33
67005;HTU21D;53920;51.094;5.902;2022-08-21T00:32:00;16.78;72.16
67005;HTU21D;53920;51.094;5.902;2022-08-21T00:34:26;16.73;71.99
67005;HTU21D;53920;51.094;5.902;2022-08-21T00:36:52;16.64;72.12
67005;HTU21D;53920;51.094;5.902;2022-08-21T00:39:18;16.56;72.41
67005;HTU21D;53920;51.094;5.902;2022-08-21T00:41:47;16.55;72.67
67005;HTU21D;53920;51.094;5.902;2022-08-21T00:44:14;16.55;72.87
67005;HTU21D;53920;51.094;5.902;2022-08-21T00:46:42;16.55;72.79
67005;HTU21D;53920;51.094;5.902;2022-08-21T00:49:11;16.51;72.56
67005;HTU21D;53920;51.094;5.902;2022-08-21T00:51:51;16.47;72.63
67005;HTU21D;53920;51.094;5.902;2022-08-21T00:54:22;16.44;72.80
67005;HTU21D;53920;51.094;5.902;2022-08-21T00:56:54;16.41;73.05
67005;HTU21D;53920;51.094;5.902;2022-08-21T00:59:23;16.39;73.22
67005;HTU21D;53920;51.094;5.902;2022-08-21T01:01:51;16.36;73.12
67005;HTU21D;53920;51.094;5.902;2022-08-21T01:04:19;16.35;73.01
67005;HTU21D;53920;51.094;5.902;2022-08-21T01:06:46;16.31;73.15
67005;HTU21D;53920;51.094;5.902;2022-08-21T01:09:13;16.28;73.59
67005;HTU21D;53920;51.094;5.902;2022-08-21T01:11:40;16.28;74.02
67005;HTU21D;53920;51.094;5.902;2022-08-21T01:14:09;16.30;74.02
67005;HTU21D;53920;51.094;5.902;2022-08-21T01:16:40;16.33;73.89
67005;HTU21D;53920;51.094;5.902;2022-08-21T01:19:08;16.26;73.77
67005;HTU21D;53920;51.094;5.902;2022-08-21T01:21:34;16.25;74.05
67005;HTU21D;53920;51.094;5.902;2022-08-21T01:24:00;16.25;74.43
67005;HTU21D;53920;51.094;5.902;2022-08-21T01:26:30;16.33;74.62
67005;HTU21D;53920;51.094;5.902;2022-08-21T01:29:03;16.41;73.85
67005;HTU21D;53920;51.094;5.902;2022-08-21T01:31:33;16.43;73.33
67005;HTU21D;53920;51.094;5.902;2022-08-21T01:34:00;16.42;73.16
67005;HTU21D;53920;51.094;5.902;2022-08-21T01:36:27;16.42;73.06
67005;HTU21D;53920;51.094;5.902;2022-08-21T01:38:53;16.37;73.14
67005;HTU21D;53920;51.094;5.902;2022-08-21T01:41:19;16.33;73.14
67005;HTU21D;53920;51.094;5.902;2022-08-21T01:43:45;16.33;73.03
67005;HTU21D;53920;51.094;5.902;2022-08-21T01:46:12;16.31;72.90
67005;HTU21D;53920;51.094;5.902;2022-08-21T01:48:39;16.26;72.76
67005;HTU21D;53920;51.094;5.902;2022-08-21T01:51:06;16.15;72.94
67005;HTU21D;53920;51.094;5.902;2022-08-21T01:53:34;16.05;73.27
67005;HTU21D;53920;51.094;5.902;2022-08-21T01:56:09;15.95;73.56
67005;HTU21D;53920;51.094;5.902;2022-08-21T01:58:35;15.92;73.67
67005;HTU21D;53920;51.094;5.902;2022-08-21T02:01:02;15.90;73.68
67005;HTU21D;53920;51.094;5.902;2022-08-21T02:03:30;15.89;73.77
67005;HTU21D;53920;51.094;5.902;2022-08-21T02:05:56;15.89;73.90
67005;HTU21D;53920;51.094;5.902;2022-08-21T02:08:23;15.90;73.68
67005;HTU21D;53920;51.094;5.902;2022-08-21T02:10:51;15.90;73.61
67005;HTU21D;53920;51.094;5.902;2022-08-21T02:13:17;15.89;73.67
67005;HTU21D;53920;51.094;5.902;2022-08-21T02:15:44;15.88;73.54
67005;HTU21D;53920;51.094;5.902;2022-08-21T02:18:13;15.87;73.54
67005;HTU21D;53920;51.094;5.902;2022-08-21T02:20:43;15.88;73.12
67005;HTU21D;53920;51.094;5.902;2022-08-21T02:23:11;15.86;72.87
67005;HTU21D;53920;51.094;5.902;2022-08-21T02:25:38;15.83;73.12
67005;HTU21D;53920;51.094;5.902;2022-08-21T02:28:10;15.80;73.07
67005;HTU21D;53920;51.094;5.902;2022-08-21T02:30:45;15.73;73.09
67005;HTU21D;53920;51.094;5.902;2022-08-21T02:33:13;15.73;73.03
67005;HTU21D;53920;51.094;5.902;2022-08-21T02:35:41;15.70;73.28
67005;HTU21D;53920;51.094;5.902;2022-08-21T02:38:20;15.65;73.86
67005;HTU21D;53920;51.094;5.902;2022-08-21T02:40:48;15.61;74.36
67005;HTU21D;53920;51.094;5.902;2022-08-21T02:43:16;15.60;74.41
67005;HTU21D;53920;51.094;5.902;2022-08-21T02:45:44;15.59;74.34
67005;HTU21D;53920;51.094;5.902;2022-08-21T02:48:14;15.57;74.43
67005;HTU21D;53920;51.094;5.902;2022-08-21T02:50:52;15.56;74.39
67005;HTU21D;53920;51.094;5.902;2022-08-21T02:53:19;15.52;74.47
67005;HTU21D;53920;51.094;5.902;2022-08-21T02:55:49;15.49;74.66
67005;HTU21D;53920;51.094;5.902;2022-08-21T02:58:21;15.46;74.73
67005;HTU21D;53920;51.094;5.902;2022-08-21T03:00:47;15.44;74.67
67005;HTU21D;53920;51.094;5.902;2022-08-21T03:03:13;15.45;74.70
67005;HTU21D;53920;51.094;5.902;2022-08-21T03:05:40;15.42;74.64
67005;HTU21D;53920;51.094;5.902;2022-08-21T03:08:09;15.41;74.59
67005;HTU21D;53920;51.094;5.902;2022-08-21T03:10:37;15.39;74.47
67005;HTU21D;53920;51.094;5.902;2022-08-21T03:13:05;15.36;74.49
67005;HTU21D;53920;51.094;5.902;2022-08-21T03:15:31;15.31;74.49
67005;HTU21D;53920;51.094;5.902;2022-08-21T03:17:58;15.27;74.64
67005;HTU21D;53920;51.094;5.902;2022-08-21T03:20:26;15.27;74.51
67005;HTU21D;53920;51.094;5.902;2022-08-21T03:22:54;15.27;74.40
67005;HTU21D;53920;51.094;5.902;2022-08-21T03:25:22;15.27;74.35
67005;HTU21D;53920;51.094;5.902;2022-08-21T03:27:48;15.31;74.12
67005;HTU21D;53920;51.094;5.902;2022-08-21T03:30:17;15.33;74.03
67005;HTU21D;53920;51.094;5.902;2022-08-21T03:32:44;15.37;73.87
67005;HTU21D;53920;51.094;5.902;2022-08-21T03:35:11;15.39;73.73
67005;HTU21D;53920;51.094;5.902;2022-08-21T03:37:38;15.40;73.54
67005;HTU21D;53920;51.094;5.902;2022-08-21T03:40:13;15.44;73.39
67005;HTU21D;53920;51.094;5.902;2022-08-21T03:42:40;15.45;73.22
67005;HTU21D;53920;51.094;5.902;2022-08-21T03:45:07;15.45;73.34
67005;HTU21D;53920;51.094;5.902;2022-08-21T03:47:33;15.44;73.24
67005;HTU21D;53920;51.094;5.902;2022-08-21T03:50:05;15.43;73.18
67005;HTU21D;53920;51.094;5.902;2022-08-21T03:52:31;15.45;72.99
67005;HTU21D;53920;51.094;5.902;2022-08-21T03:54:57;15.44;73.01
67005;HTU21D;53920;51.094;5.902;2022-08-21T03:57:23;15.43;73.03
67005;HTU21D;53920;51.094;5.902;2022-08-21T03:59:48;15.42;73.13
67005;HTU21D;53920;51.094;5.902;2022-08-21T04:02:18;15.39;73.12
67005;HTU21D;53920;51.094;5.902;2022-08-21T04:04:46;15.39;73.19
67005;HTU21D;53920;51.094;5.902;2022-08-21T04:07:12;15.38;73.11
67005;HTU21D;53920;51.094;5.902;2022-08-21T04:09:39;15.36;73.14
67005;HTU21D;53920;51.094;5.902;2022-08-21T04:12:07;15.32;73.17
67005;HTU21D;53920;51.094;5.902;2022-08-21T04:14:33;15.31;73.09
67005;HTU21D;53920;51.094;5.902;2022-08-21T04:16:59;15.29;73.12
67005;HTU21D;53920;51.094;5.902;2022-08-21T04:19:26;15.28;73.03
67005;HTU21D;53920;51.094;5.902;2022-08-21T04:21:52;15.28;73.07
67005;HTU21D;53920;51.094;5.902;2022-08-21T04:24:18;15.28;73.08
67005;HTU21D;53920;51.094;5.902;2022-08-21T04:26:45;15.24;73.11
67005;HTU21D;53920;51.094;5.902;2022-08-21T04:29:11;15.21;73.16
67005;HTU21D;53920;51.094;5.902;2022-08-21T04:31:37;15.16;73.24
67005;HTU21D;53920;51.094;5.902;2022-08-21T04:34:04;15.15;73.20
67005;HTU21D;53920;51.094;5.902;2022-08-21T04:36:33;15.15;73.35
67005;HTU21D;53920;51.094;5.902;2022-08-21T04:39:00;15.13;73.34
67005;HTU21D;53920;51.094;5.902;2022-08-21T04:41:26;15.12;73.27
67005;HTU21D;53920;51.094;5.902;2022-08-21T04:43:52;15.11;73.15
67005;HTU21D;53920;51.094;5.902;2022-08-21T04:46:21;15.08;73.30
67005;HTU21D;53920;51.094;5.902;2022-08-21T04:48:47;15.07;73.38
67005;HTU21D;53920;51.094;5.902;2022-08-21T04:51:33;15.04;73.33
67005;HTU21D;53920;51.094;5.902;2022-08-21T04:54:10;15.04;73.38
67005;HTU21D;53920;51.094;5.902;2022-08-21T04:56:42;15.03;73.16
67005;HTU21D;53920;51.094;5.902;2022-08-21T04:59:20;15.01;73.22
67005;HTU21D;53920;51.094;5.902;2022-08-21T05:01:49;15.02;73.15
67005;HTU21D;53920;51.094;5.902;2022-08-21T05:04:21;15.02;73.08
67005;HTU21D;53920;51.094;5.902;2022-08-21T05:06:52;15.01;73.21
67005;HTU21D;53920;51.094;5.902;2022-08-21T05:09:21;15.03;73.42
67005;HTU21D;53920;51.094;5.902;2022-08-21T05:11:47;15.02;73.38
67005;HTU21D;53920;51.094;5.902;2022-08-21T05:14:14;14.99;73.55
67005;HTU21D;53920;51.094;5.902;2022-08-21T05:16:44;15.02;73.54
67005;HTU21D;53920;51.094;5.902;2022-08-21T05:19:10;15.03;73.61
67005;HTU21D;53920;51.094;5.902;2022-08-21T05:21:40;15.07;73.58
67005;HTU21D;53920;51.094;5.902;2022-08-21T05:24:07;15.09;73.57
67005;HTU21D;53920;51.094;5.902;2022-08-21T05:26:33;15.12;73.36
67005;HTU21D;53920;51.094;5.902;2022-08-21T05:29:00;15.14;73.51
67005;HTU21D;53920;51.094;5.902;2022-08-21T05:31:26;15.19;73.41
67005;HTU21D;53920;51.094;5.902;2022-08-21T05:33:52;15.24;73.47
67005;HTU21D;53920;51.094;5.902;2022-08-21T05:36:18;15.29;73.54
67005;HTU21D;53920;51.094;5.902;2022-08-21T05:38:44;15.34;73.46
67005;HTU21D;53920;51.094;5.902;2022-08-21T05:41:11;15.41;73.57
67005;HTU21D;53920;51.094;5.902;2022-08-21T05:43:37;15.48;73.61
67005;HTU21D;53920;51.094;5.902;2022-08-21T05:46:04;15.53;73.61
67005;HTU21D;53920;51.094;5.902;2022-08-21T05:48:30;15.60;73.53
67005;HTU21D;53920;51.094;5.902;2022-08-21T05:50:57;15.68;73.45
67005;HTU21D;53920;51.094;5.902;2022-08-21T05:53:24;15.74;73.51
67005;HTU21D;53920;51.094;5.902;2022-08-21T05:55:51;15.81;73.48
67005;HTU21D;53920;51.094;5.902;2022-08-21T05:58:20;15.92;73.37
67005;HTU21D;53920;51.094;5.902;2022-08-21T06:00:49;16.00;73.35
67005;HTU21D;53920;51.094;5.902;2022-08-21T06:03:24;16.07;73.19
67005;HTU21D;53920;51.094;5.902;2022-08-21T06:05:50;16.17;73.03
67005;HTU21D;53920;51.094;5.902;2022-08-21T06:08:18;16.25;72.85
67005;HTU21D;53920;51.094;5.902;2022-08-21T06:10:46;16.36;72.60
67005;HTU21D;53920;51.094;5.902;2022-08-21T06:13:13;16.48;72.48
67005;HTU21D;53920;51.094;5.902;2022-08-21T06:15:40;16.61;72.36
67005;HTU21D;53920;51.094;5.902;2022-08-21T06:18:06;16.75;71.62
67005;HTU21D;53920;51.094;5.902;2022-08-21T06:20:32;16.93;71.05
67005;HTU21D;53920;51.094;5.902;2022-08-21T06:22:59;17.13;70.52
67005;HTU21D;53920;51.094;5.902;2022-08-21T06:25:25;17.28;70.03
67005;HTU21D;53920;51.094;5.902;2022-08-21T06:27:52;17.45;69.31
67005;HTU21D;53920;51.094;5.902;2022-08-21T06:30:19;17.60;68.85
67005;HTU21D;53920;51.094;5.902;2022-08-21T06:32:47;17.74;68.26
67005;HTU21D;53920;51.094;5.902;2022-08-21T06:35:13;17.85;67.51
67005;HTU21D;53920;51.094;5.902;2022-08-21T06:37:39;17.96;67.10
67005;HTU21D;53920;51.094;5.902;2022-08-21T06:40:06;18.10;66.64
67005;HTU21D;53920;51.094;5.902;2022-08-21T06:42:32;18.24;65.88
67005;HTU21D;53920;51.094;5.902;2022-08-21T06:45:01;18.40;65.66
67005;HTU21D;53920;51.094;5.902;2022-08-21T06:47:27;18.55;65.05
67005;HTU21D;53920;51.094;5.902;2022-08-21T06:49:53;18.70;64.49
67005;HTU21D;53920;51.094;5.902;2022-08-21T06:52:19;18.84;63.95
67005;HTU21D;53920;51.094;5.902;2022-08-21T06:54:45;18.98;63.19
67005;HTU21D;53920;51.094;5.902;2022-08-21T06:57:11;19.05;63.00
67005;HTU21D;53920;51.094;5.902;2022-08-21T06:59:37;19.11;62.71
67005;HTU21D;53920;51.094;5.902;2022-08-21T07:02:03;19.20;62.32
67005;HTU21D;53920;51.094;5.902;2022-08-21T07:04:29;19.36;61.90
67005;HTU21D;53920;51.094;5.902;2022-08-21T07:06:55;19.52;61.67
67005;HTU21D;53920;51.094;5.902;2022-08-21T07:09:22;19.76;61.10
67005;HTU21D;53920;51.094;5.902;2022-08-21T07:11:52;21.05;56.99
67005;HTU21D;53920;51.094;5.902;2022-08-21T07:14:18;23.46;49.34
67005;HTU21D;53920;51.094;5.902;2022-08-21T07:16:44;25.51;43.61
67005;HTU21D;53920;51.094;5.902;2022-08-21T07:19:10;27.16;39.59
67005;HTU21D;53920;51.094;5.902;2022-08-21T07:21:36;28.38;36.56
67005;HTU21D;53920;51.094;5.902;2022-08-21T07:24:03;29.26;34.54
67005;HTU21D;53920;51.094;5.902;2022-08-21T07:26:38;30.13;32.75
67005;HTU21D;53920;51.094;5.902;2022-08-21T07:29:04;31.26;30.76
67005;HTU21D;53920;51.094;5.902;2022-08-21T07:31:31;32.23;28.62
67005;HTU21D;53920;51.094;5.902;2022-08-21T07:33:57;32.81;27.55
67005;HTU21D;53920;51.094;5.902;2022-08-21T07:36:23;32.63;27.65
67005;HTU21D;53920;51.094;5.902;2022-08-21T07:38:49;32.79;27.15
67005;HTU21D;53920;51.094;5.902;2022-08-21T07:41:25;33.11;26.49
67005;HTU21D;53920;51.094;5.902;2022-08-21T07:43:52;33.62;25.88
67005;HTU21D;53920;51.094;5.902;2022-08-21T07:46:19;33.68;25.63
67005;HTU21D;53920;51.094;5.902;2022-08-21T07:48:47;33.94;25.09
67005;HTU21D;53920;51.094;5.902;2022-08-21T07:51:17;34.04;24.71
67005;HTU21D;53920;51.094;5.902;2022-08-21T07:53:51;34.03;24.74
67005;HTU21D;53920;51.094;5.902;2022-08-21T07:56:18;34.53;24.08
67005;HTU21D;53920;51.094;5.902;2022-08-21T07:58:44;34.95;23.28
67005;HTU21D;53920;51.094;5.902;2022-08-21T08:01:10;34.45;24.11
67005;HTU21D;53920;51.094;5.902;2022-08-21T08:03:40;34.23;24.35
67005;HTU21D;53920;51.094;5.902;2022-08-21T08:06:07;34.42;24.11
67005;HTU21D;53920;51.094;5.902;2022-08-21T08:08:39;34.31;24.24
67005;HTU21D;53920;51.094;5.902;2022-08-21T08:11:06;34.38;24.05
67005;HTU21D;53920;51.094;5.902;2022-08-21T08:13:38;33.71;24.94
67005;HTU21D;53920;51.094;5.902;2022-08-21T08:16:05;32.75;26.63
67005;HTU21D;53920;51.094;5.902;2022-08-21T08:18:31;32.48;27.05
67005;HTU21D;53920;51.094;5.902;2022-08-21T08:20:57;32.73;26.62
67005;HTU21D;53920;51.094;5.902;2022-08-21T08:23:23;32.13;27.41
67005;HTU21D;53920;51.094;5.902;2022-08-21T08:25:49;31.92;27.88
67005;HTU21D;53920;51.094;5.902;2022-08-21T08:28:15;32.56;27.00
67005;HTU21D;53920;51.094;5.902;2022-08-21T08:30:41;33.00;26.17
67005;HTU21D;53920;51.094;5.902;2022-08-21T08:33:08;34.02;24.56
67005;HTU21D;53920;51.094;5.902;2022-08-21T08:35:35;35.00;22.95
67005;HTU21D;53920;51.094;5.902;2022-08-21T08:38:02;35.74;21.78
67005;HTU21D;53920;51.094;5.902;2022-08-21T08:40:46;36.68;20.37
67005;HTU21D;53920;51.094;5.902;2022-08-21T08:43:16;36.68;20.10
67005;HTU21D;53920;51.094;5.902;2022-08-21T08:45:48;34.94;22.44
67005;HTU21D;53920;51.094;5.902;2022-08-21T08:48:49;33.21;25.19
67005;HTU21D;53920;51.094;5.902;2022-08-21T08:51:41;33.11;25.74
67005;HTU21D;53920;51.094;5.902;2022-08-21T08:54:14;32.34;26.87
67005;HTU21D;53920;51.094;5.902;2022-08-21T08:56:41;31.74;28.11
67005;HTU21D;53920;51.094;5.902;2022-08-21T08:59:16;31.68;28.39
67005;HTU21D;53920;51.094;5.902;2022-08-21T09:01:44;32.63;26.43
67005;HTU21D;53920;51.094;5.902;2022-08-21T09:04:12;32.93;25.76
67005;HTU21D;53920;51.094;5.902;2022-08-21T09:18:08;36.76;19.46
67005;HTU21D;53920;51.094;5.902;2022-08-21T09:20:57;37.06;19.01
67005;HTU21D;53920;51.094;5.902;2022-08-21T09:26:17;36.91;18.99
67005;HTU21D;53920;51.094;5.902;2022-08-21T09:28:45;36.90;19.12
67005;HTU21D;53920;51.094;5.902;2022-08-21T09:31:28;36.61;19.44
67005;HTU21D;53920;51.094;5.902;2022-08-21T09:34:07;36.31;19.85
67005;HTU21D;53920;51.094;5.902;2022-08-21T09:36:44;35.75;20.61
67005;HTU21D;53920;51.094;5.902;2022-08-21T09:39:21;35.65;20.70
67005;HTU21D;53920;51.094;5.902;2022-08-21T09:42:00;35.38;21.15
67005;HTU21D;53920;51.094;5.902;2022-08-21T09:44:38;35.34;21.21
67005;HTU21D;53920;51.094;5.902;2022-08-21T09:47:07;35.43;21.13
67005;HTU21D;53920;51.094;5.902;2022-08-21T09:49:37;35.28;21.37
67005;HTU21D;53920;51.094;5.902;2022-08-21T09:52:31;34.86;21.82
67005;HTU21D;53920;51.094;5.902;2022-08-21T09:54:58;34.78;21.81
67005;HTU21D;53920;51.094;5.902;2022-08-21T09:57:30;35.40;21.05
67005;HTU21D;53920;51.094;5.902;2022-08-21T10:00:18;35.78;20.40
67005;HTU21D;53920;51.094;5.902;2022-08-21T10:02:44;35.84;20.32
67005;HTU21D;53920;51.094;5.902;2022-08-21T10:05:23;35.80;20.28
67005;HTU21D;53920;51.094;5.902;2022-08-21T10:07:50;35.64;20.59
67005;HTU21D;53920;51.094;5.902;2022-08-21T10:10:28;35.23;21.37
67005;HTU21D;53920;51.094;5.902;2022-08-21T10:18:35;35.49;20.73
67005;HTU21D;53920;51.094;5.902;2022-08-21T10:21:30;35.08;21.24
67005;HTU21D;53920;51.094;5.902;2022-08-21T10:27:00;33.83;23.44
67005;HTU21D;53920;51.094;5.902;2022-08-21T10:32:43;34.81;22.11
67005;HTU21D;53920;51.094;5.902;2022-08-21T10:41:04;36.95;18.79
67005;HTU21D;53920;51.094;5.902;2022-08-21T10:51:56;36.26;19.46
67005;HTU21D;53920;51.094;5.902;2022-08-21T10:55:24;36.52;19.26
67005;HTU21D;53920;51.094;5.902;2022-08-21T10:57:50;37.13;18.05
67005;HTU21D;53920;51.094;5.902;2022-08-21T11:00:21;37.72;17.73
67005;HTU21D;53920;51.094;5.902;2022-08-21T11:02:50;37.91;17.09
67005;HTU21D;53920;51.094;5.902;2022-08-21T11:05:25;38.01;16.86
67005;HTU21D;53920;51.094;5.902;2022-08-21T11:08:04;38.59;16.08
67005;HTU21D;53920;51.094;5.902;2022-08-21T11:10:47;38.58;16.05
67005;HTU21D;53920;51.094;5.902;2022-08-21T11:13:51;38.52;16.35
67005;HTU21D;53920;51.094;5.902;2022-08-21T11:16:33;38.88;15.91
67005;HTU21D;53920;51.094;5.902;2022-08-21T11:27:33;37.06;18.36
67005;HTU21D;53920;51.094;5.902;2022-08-21T11:30:01;36.15;19.42
67005;HTU21D;53920;51.094;5.902;2022-08-21T11:32:57;35.39;20.63
67005;HTU21D;53920;51.094;5.902;2022-08-21T11:35:34;35.89;20.05
67005;HTU21D;53920;51.094;5.902;2022-08-21T11:52:17;38.41;15.91
67005;HTU21D;53920;51.094;5.902;2022-08-21T12:00:19;38.48;15.35
67005;HTU21D;53920;51.094;5.902;2022-08-21T12:02:52;38.00;15.64
67005;HTU21D;53920;51.094;5.902;2022-08-21T12:08:31;38.05;16.24
67005;HTU21D;53920;51.094;5.902;2022-08-21T12:11:25;37.51;16.77
67005;HTU21D;53920;51.094;5.902;2022-08-21T12:13:59;36.86;17.29
67005;HTU21D;53920;51.094;5.902;2022-08-21T12:19:11;36.91;17.25
67005;HTU21D;53920;51.094;5.902;2022-08-21T12:21:54;37.16;16.55
67005;HTU21D;53920;51.094;5.902;2022-08-21T12:29:48;37.75;15.43
67005;HTU21D;53920;51.094;5.902;2022-08-21T12:37:50;37.37;15.63
67005;HTU21D;53920;51.094;5.902;2022-08-21T12:40:31;37.56;15.55
67005;HTU21D;53920;51.094;5.902;2022-08-21T12:43:00;37.64;15.74
67005;HTU21D;53920;51.094;5.902;2022-08-21T12:45:36;37.81;15.70
67005;HTU21D;53920;51.094;5.902;2022-08-21T12:48:33;37.33;16.16
67005;HTU21D;53920;51.094;5.902;2022-08-21T12:51:13;37.36;16.67
67005;HTU21D;53920;51.094;5.902;2022-08-21T12:56:12;37.76;16.74
67005;HTU21D;53920;51.094;5.902;2022-08-21T12:58:48;38.04;16.36
67005;HTU21D;53920;51.094;5.902;2022-08-21T13:01:28;37.34;16.67
67005;HTU21D;53920;51.094;5.902;2022-08-21T13:03:59;37.28;17.78
67005;HTU21D;53920;51.094;5.902;2022-08-21T13:06:32;37.12;16.78
67005;HTU21D;53920;51.094;5.902;2022-08-21T13:09:10;36.82;16.77
67005;HTU21D;53920;51.094;5.902;2022-08-21T13:11:39;36.71;16.65
67005;HTU21D;53920;51.094;5.902;2022-08-21T13:14:14;36.76;16.99
67005;HTU21D;53920;51.094;5.902;2022-08-21T13:16:43;36.69;16.90
67005;HTU21D;53920;51.094;5.902;2022-08-21T13:19:17;36.40;17.57
67005;HTU21D;53920;51.094;5.902;2022-08-21T13:21:44;36.23;18.38
67005;HTU21D;53920;51.094;5.902;2022-08-21T13:24:24;35.83;18.05
67005;HTU21D;53920;51.094;5.902;2022-08-21T13:26:51;35.25;18.79
67005;HTU21D;53920;51.094;5.902;2022-08-21T13:29:21;34.83;19.33
67005;HTU21D;53920;51.094;5.902;2022-08-21T13:31:52;34.40;19.99
67005;HTU21D;53920;51.094;5.902;2022-08-21T13:34:23;34.76;19.79
67005;HTU21D;53920;51.094;5.902;2022-08-21T13:36:55;35.28;18.94
67005;HTU21D;53920;51.094;5.902;2022-08-21T13:39:24;35.52;19.12
67005;HTU21D;53920;51.094;5.902;2022-08-21T13:41:55;35.97;18.37
67005;HTU21D;53920;51.094;5.902;2022-08-21T13:46:59;37.15;17.09
67005;HTU21D;53920;51.094;5.902;2022-08-21T13:49:32;37.16;16.92
67005;HTU21D;53920;51.094;5.902;2022-08-21T13:51:58;37.08;16.90
67005;HTU21D;53920;51.094;5.902;2022-08-21T13:54:37;36.71;17.02
67005;HTU21D;53920;51.094;5.902;2022-08-21T13:57:04;36.26;17.57
67005;HTU21D;53920;51.094;5.902;2022-08-21T13:59:37;36.09;17.45
67005;HTU21D;53920;51.094;5.902;2022-08-21T14:02:19;36.17;17.71
67005;HTU21D;53920;51.094;5.902;2022-08-21T14:05:07;36.30;17.42
67005;HTU21D;53920;51.094;5.902;2022-08-21T14:07:42;35.88;18.10
67005;HTU21D;53920;51.094;5.902;2022-08-21T14:10:21;34.56;19.53
67005;HTU21D;53920;51.094;5.902;2022-08-21T14:12:49;33.29;21.43
67005;HTU21D;53920;51.094;5.902;2022-08-21T14:15:18;33.07;21.97
67005;HTU21D;53920;51.094;5.902;2022-08-21T14:17:45;33.37;21.18
67005;HTU21D;53920;51.094;5.902;2022-08-21T14:20:26;33.45;21.05
67005;HTU21D;53920;51.094;5.902;2022-08-21T14:22:53;33.58;21.81
67005;HTU21D;53920;51.094;5.902;2022-08-21T14:30:34;33.65;21.02
67005;HTU21D;53920;51.094;5.902;2022-08-21T14:33:03;33.64;20.80
67005;HTU21D;53920;51.094;5.902;2022-08-21T14:35:30;33.76;20.71
67005;HTU21D;53920;51.094;5.902;2022-08-21T14:37:57;33.86;20.74
67005;HTU21D;53920;51.094;5.902;2022-08-21T14:40:27;34.03;20.67
67005;HTU21D;53920;51.094;5.902;2022-08-21T14:42:54;33.93;20.33
67005;HTU21D;53920;51.094;5.902;2022-08-21T14:45:26;33.64;20.92
67005;HTU21D;53920;51.094;5.902;2022-08-21T14:47:55;33.48;20.85
67005;HTU21D;53920;51.094;5.902;2022-08-21T14:50:21;33.22;20.89
67005;HTU21D;53920;51.094;5.902;2022-08-21T14:52:50;32.83;21.26
67005;HTU21D;53920;51.094;5.902;2022-08-21T14:55:18;32.47;21.79
67005;HTU21D;53920;51.094;5.902;2022-08-21T14:57:51;32.07;22.02
67005;HTU21D;53920;51.094;5.902;2022-08-21T15:00:20;31.72;22.35
67005;HTU21D;53920;51.094;5.902;2022-08-21T15:02:50;31.29;23.52
67005;HTU21D;53920;51.094;5.902;2022-08-21T15:05:19;30.80;24.78
67005;HTU21D;53920;51.094;5.902;2022-08-21T15:07:45;30.33;25.70
67005;HTU21D;53920;51.094;5.902;2022-08-21T15:10:11;30.19;26.20
67005;HTU21D;53920;51.094;5.902;2022-08-21T15:12:39;30.30;26.17
67005;HTU21D;53920;51.094;5.902;2022-08-21T15:15:06;30.22;26.49
67005;HTU21D;53920;51.094;5.902;2022-08-21T15:17:32;29.93;26.52
67005;HTU21D;53920;51.094;5.902;2022-08-21T15:19:58;29.66;27.07
67005;HTU21D;53920;51.094;5.902;2022-08-21T15:22:24;29.35;27.32
67005;HTU21D;53920;51.094;5.902;2022-08-21T15:24:50;29.04;27.96
67005;HTU21D;53920;51.094;5.902;2022-08-21T15:27:18;28.84;28.08
67005;HTU21D;53920;51.094;5.902;2022-08-21T15:29:44;28.59;28.41
67005;HTU21D;53920;51.094;5.902;2022-08-21T15:32:24;28.46;28.86
67005;HTU21D;53920;51.094;5.902;2022-08-21T15:34:52;28.28;28.87
67005;HTU21D;53920;51.094;5.902;2022-08-21T15:37:20;28.18;29.15
67005;HTU21D;53920;51.094;5.902;2022-08-21T15:39:46;28.08;29.51
67005;HTU21D;53920;51.094;5.902;2022-08-21T15:42:16;28.01;29.70
67005;HTU21D;53920;51.094;5.902;2022-08-21T15:44:46;27.97;30.49
67005;HTU21D;53920;51.094;5.902;2022-08-21T15:47:19;27.95;30.48
67005;HTU21D;53920;51.094;5.902;2022-08-21T15:49:46;27.89;30.25
67005;HTU21D;53920;51.094;5.902;2022-08-21T15:52:14;27.90;30.81
67005;HTU21D;53920;51.094;5.902;2022-08-21T15:54:41;28.02;30.77
67005;HTU21D;53920;51.094;5.902;2022-08-21T15:57:13;28.11;31.12
67005;HTU21D;53920;51.094;5.902;2022-08-21T15:59:41;28.13;30.95
67005;HTU21D;53920;51.094;5.902;2022-08-21T16:02:15;28.11;30.91
67005;HTU21D;53920;51.094;5.902;2022-08-21T16:04:41;28.08;30.58
67005;HTU21D;53920;51.094;5.902;2022-08-21T16:07:07;27.95;31.19
67005;HTU21D;53920;51.094;5.902;2022-08-21T16:09:33;27.87;31.78
67005;HTU21D;53920;51.094;5.902;2022-08-21T16:12:00;27.72;32.08
67005;HTU21D;53920;51.094;5.902;2022-08-21T16:14:29;27.55;32.60
67005;HTU21D;53920;51.094;5.902;2022-08-21T16:16:56;27.41;32.98
67005;HTU21D;53920;51.094;5.902;2022-08-21T16:19:32;27.37;33.16
67005;HTU21D;53920;51.094;5.902;2022-08-21T16:21:59;27.30;33.19
67005;HTU21D;53920;51.094;5.902;2022-08-21T16:24:25;27.27;33.47
67005;HTU21D;53920;51.094;5.902;2022-08-21T16:26:51;27.25;34.14
67005;HTU21D;53920;51.094;5.902;2022-08-21T16:29:18;27.25;33.91
67005;HTU21D;53920;51.094;5.902;2022-08-21T16:31:47;27.30;33.87
67005;HTU21D;53920;51.094;5.902;2022-08-21T16:34:17;27.29;34.19
67005;HTU21D;53920;51.094;5.902;2022-08-21T16:36:44;27.25;33.51
67005;HTU21D;53920;51.094;5.902;2022-08-21T16:39:10;27.27;33.79
67005;HTU21D;53920;51.094;5.902;2022-08-21T16:41:37;27.27;34.15
67005;HTU21D;53920;51.094;5.902;2022-08-21T16:44:05;27.23;34.56
67005;HTU21D;53920;51.094;5.902;2022-08-21T16:46:39;27.14;35.63
67005;HTU21D;53920;51.094;5.902;2022-08-21T16:49:05;27.06;35.41
67005;HTU21D;53920;51.094;5.902;2022-08-21T16:51:32;26.92;35.55
67005;HTU21D;53920;51.094;5.902;2022-08-21T16:53:59;26.79;36.21
67005;HTU21D;53920;51.094;5.902;2022-08-21T16:56:25;26.60;36.50
67005;HTU21D;53920;51.094;5.902;2022-08-21T16:58:54;26.48;36.27
67005;HTU21D;53920;51.094;5.902;2022-08-21T17:01:25;26.36;36.80
67005;HTU21D;53920;51.094;5.902;2022-08-21T17:03:52;26.23;37.42
67005;HTU21D;53920;51.094;5.902;2022-08-21T17:06:21;26.15;38.24